Sea Hunter — 8PUY — position and weather

sailwx.info

Track history (hours):
 
Tides and Currents Weather Stations Pressure Air Temp Water Temp Dewpoint Dewpoint Depression Visibility Wind Speed Wind Dir Waves Ship Positions

Sea Hunter

Last reported at 2018-Jun-19 12:00 UTC. Time now 2018-Jun-19 12:25 UTC.
Position N 51°28' E 000°21'.

Length 87 m; draft 4.9 m.

Type: Cargo ship. MMSI: 314270000.

Date/timePositionNaut miles runAvg speedWind from/ knotsBaromVisibWave heightAir tempDewpointWater temp
2018-Jun-19 12:00N 51°28' E 000°21'0 0.0
2018-Jun-19 11:30N 51°28' E 000°21'0 0.0
2018-Jun-19 11:00N 51°28' E 000°21'0 0.0
2018-Jun-19 10:30N 51°28' E 000°21'0 0.0
2018-Jun-19 10:00N 51°28' E 000°21'0 0.0
2018-Jun-19 09:30N 51°28' E 000°21'0 0.0
2018-Jun-19 09:00N 51°28' E 000°21'0 0.0
2018-Jun-19 08:30N 51°28' E 000°21'0 0.0
2018-Jun-19 08:00N 51°28' E 000°21'0 0.0
2018-Jun-19 07:30N 51°28' E 000°21'0 0.0
2018-Jun-19 07:00N 51°28' E 000°21'0 0.0
2018-Jun-19 06:30N 51°28' E 000°21'0 0.0
2018-Jun-19 06:00N 51°28' E 000°21'0 0.0
2018-Jun-19 05:30N 51°28' E 000°21'0 0.0
2018-Jun-19 05:00N 51°28' E 000°21'0 0.0
2018-Jun-19 04:30N 51°28' E 000°21'0 0.0
2018-Jun-19 04:00N 51°28' E 000°21'0 0.0
2018-Jun-19 03:30N 51°28' E 000°21'0 0.0
2018-Jun-19 03:00N 51°28' E 000°21'0 0.0
2018-Jun-19 02:30N 51°28' E 000°21'0 0.0
2018-Jun-19 02:00N 51°28' E 000°21'0 0.0
2018-Jun-19 01:30N 51°28' E 000°21'0 0.0
2018-Jun-19 01:00N 51°28' E 000°21'0 0.0
2018-Jun-19 00:30N 51°28' E 000°21'0 0.0
2018-Jun-19 00:00N 51°28' E 000°21'0 0.0
2018-Jun-18 23:30N 51°28' E 000°21'0 0.0
2018-Jun-18 23:00N 51°28' E 000°21'0 0.0
2018-Jun-18 22:30N 51°28' E 000°21'0 0.0
2018-Jun-18 22:00N 51°28' E 000°21'0 0.0
2018-Jun-18 21:30N 51°28' E 000°21'0 0.0
2018-Jun-18 21:00N 51°28' E 000°21'0 0.0
2018-Jun-18 20:30N 51°28' E 000°21'0 0.0
2018-Jun-18 20:00N 51°28' E 000°21'0 0.0
2018-Jun-18 19:30N 51°28' E 000°21'0 0.0
2018-Jun-18 19:00N 51°28' E 000°21'0 0.0
2018-Jun-18 18:30N 51°28' E 000°21'0 0.0
2018-Jun-18 18:00N 51°28' E 000°21'0 0.0
2018-Jun-18 17:31N 51°28' E 000°21'0 0.0
2018-Jun-18 17:00N 51°28' E 000°21'0 0.0
2018-Jun-18 16:30N 51°28' E 000°21'0 0.0
2018-Jun-18 16:00N 51°28' E 000°21'0 0.7
2018-Jun-18 15:30N 51°27' E 000°21'0 0.8
2018-Jun-18 15:00N 51°27' E 000°20'2 3.3
2018-Jun-18 14:30N 51°27' E 000°23'5 9.5
2018-Jun-18 14:01N 51°30' E 000°29'611.5
2018-Jun-18 13:30N 51°30' E 000°38'611.6
2018-Jun-18 13:00N 51°30' E 000°47'611.1
2018-Jun-18 12:30N 51°30' E 000°56'1 2.7
2018-Jun-18 11:58N 51°30' E 000°58'0 0.1
2018-Jun-18 11:28N 51°30' E 000°58'0 0.2
2018-Jun-18 10:58N 51°30' E 000°58'0 0.1
2018-Jun-18 10:28N 51°30' E 000°59'0 0.0
2018-Jun-18 09:58N 51°30' E 000°59'0 0.0
2018-Jun-18 09:28N 51°30' E 000°59'0 0.0
2018-Jun-18 08:58N 51°30' E 000°58'0 0.0
2018-Jun-18 08:28N 51°30' E 000°58'0 0.0
2018-Jun-18 07:58N 51°30' E 000°58'0 0.0
2018-Jun-18 07:28N 51°30' E 000°58'0 0.0
2018-Jun-18 06:58N 51°30' E 000°58'1 2.4
2018-Jun-18 06:31N 51°31' E 000°60'3 5.6
2018-Jun-18 06:01N 51°33' E 001°03'3 6.4
2018-Jun-18 05:31N 51°34' E 001°08'3 6.8
2018-Jun-18 05:01N 51°36' E 001°12'4 7.3
2018-Jun-18 04:30N 51°39' E 001°16'4 7.1
2018-Jun-18 04:01N 51°42' E 001°20'4 7.1
2018-Jun-18 03:31N 51°44' E 001°24'4 7.3
2018-Jun-18 03:01N 51°47' E 001°28'4 7.5
2018-Jun-18 02:30N 51°49' E 001°33'4 8.4
2018-Jun-18 02:00N 51°50' E 001°40'4 8.4
2018-Jun-18 01:30N 51°51' E 001°46'4 8.0
2018-Jun-18 01:01N 51°50' E 001°53'4 8.8
2018-Jun-18 00:30N 51°51' E 001°59'4 8.7
2018-Jun-18 00:01N 51°53' E 002°05'238 8.4
2018-Jun-16 19:49N 53°55' E 007°44'910.0
2018-Jun-16 18:53N 53°52' E 007°58'411.5
2018-Jun-16 18:30N 53°50' E 008°05'612.3
2018-Jun-16 18:00N 53°45' E 008°12'712.8
2018-Jun-16 17:29N 53°41' E 008°21'612.8
2018-Jun-16 16:59N 53°37' E 008°29'510.3
2018-Jun-16 16:31N 53°33' E 008°34'510.4
2018-Jun-16 15:59N 53°28' E 008°30'510.6
2018-Jun-16 15:30N 53°23' E 008°30'1 2.3
2018-Jun-16 14:53N 53°21' E 008°30'0 0.0
2018-Jun-16 11:59N 53°21' E 008°30'0 0.0
2018-Jun-16 11:20N 53°21' E 008°30'0 0.0
2018-Jun-16 10:59N 53°21' E 008°30'0 0.0
2018-Jun-16 10:26N 53°21' E 008°30'0 0.0
2018-Jun-16 09:59N 53°21' E 008°30'0 0.0
2018-Jun-16 09:29N 53°21' E 008°30'0 0.0
2018-Jun-16 08:59N 53°21' E 008°30'0 0.0
2018-Jun-16 08:11N 53°21' E 008°30'0 0.0
2018-Jun-16 07:59N 53°21' E 008°30'0 0.0
2018-Jun-16 07:29N 53°21' E 008°30'0 0.0
2018-Jun-16 06:53N 53°21' E 008°30'0 0.0
2018-Jun-16 06:17N 53°21' E 008°30'0 0.0
2018-Jun-16 05:53N 53°21' E 008°30'0 0.0
2018-Jun-16 05:26N 53°21' E 008°30'0 0.0
2018-Jun-16 04:59N 53°21' E 008°30'0 0.0
2018-Jun-16 04:29N 53°21' E 008°30'0 0.0
2018-Jun-16 03:56N 53°21' E 008°30'0 0.0
2018-Jun-16 03:26N 53°21' E 008°30'0 0.0
2018-Jun-16 02:59N 53°21' E 008°30'0 0.0
2018-Jun-16 02:29N 53°21' E 008°30'0 0.0
2018-Jun-16 01:59N 53°21' E 008°30'0 0.0
2018-Jun-16 01:26N 53°21' E 008°30'0 0.0
2018-Jun-16 00:56N 53°21' E 008°30'0 0.0
2018-Jun-16 00:11N 53°21' E 008°30'0 0.0
2018-Jun-15 23:50N 53°21' E 008°30'0 0.0
2018-Jun-15 23:29N 53°21' E 008°30'0 0.0
2018-Jun-15 22:59N 53°21' E 008°30'0 0.0
2018-Jun-15 22:29N 53°21' E 008°30'0 0.0
2018-Jun-15 21:59N 53°21' E 008°30'0 0.0
2018-Jun-15 21:29N 53°21' E 008°30'0 0.0
2018-Jun-15 20:56N 53°21' E 008°30'0 0.0
2018-Jun-15 20:29N 53°21' E 008°30'0 0.0
2018-Jun-15 19:59N 53°21' E 008°30'0 0.0
2018-Jun-15 19:29N 53°21' E 008°30'0 0.0
2018-Jun-15 18:59N 53°21' E 008°30'0 0.0
2018-Jun-15 18:26N 53°21' E 008°30'0 0.0
2018-Jun-15 17:59N 53°21' E 008°30'0 0.0
2018-Jun-15 17:29N 53°21' E 008°30'0 0.0
2018-Jun-15 16:59N 53°21' E 008°30'0 0.0
2018-Jun-15 13:05N 53°21' E 008°30'0 0.0
2018-Jun-15 12:59N 53°21' E 008°30'0 0.0
2018-Jun-15 12:26N 53°21' E 008°30'0 0.0
2018-Jun-15 11:59N 53°21' E 008°30'0 0.0
2018-Jun-15 11:20N 53°21' E 008°30'0 0.0
2018-Jun-15 10:53N 53°21' E 008°30'0 0.0
2018-Jun-15 10:26N 53°21' E 008°30'0 0.0
2018-Jun-15 09:32N 53°21' E 008°30'0 0.0
2018-Jun-15 09:20N 53°21' E 008°30'0 0.0
2018-Jun-15 08:59N 53°21' E 008°30'0 0.0
2018-Jun-15 08:29N 53°21' E 008°30'0 0.0
2018-Jun-15 07:59N 53°21' E 008°30'0 0.0
2018-Jun-15 07:29N 53°21' E 008°30'0 0.0
2018-Jun-15 06:56N 53°21' E 008°30'0 0.0
2018-Jun-15 06:29N 53°21' E 008°30'0 0.0
2018-Jun-15 05:59N 53°21' E 008°30'0 0.0
2018-Jun-15 05:29N 53°21' E 008°30'0 0.0
2018-Jun-15 04:59N 53°21' E 008°30'0 0.0
2018-Jun-15 04:29N 53°21' E 008°30'0 0.0
2018-Jun-15 03:59N 53°21' E 008°30'0 0.0
2018-Jun-15 03:26N 53°21' E 008°30'0 0.0
2018-Jun-15 02:56N 53°21' E 008°30'0 0.0
2018-Jun-15 02:29N 53°21' E 008°30'0 0.0
2018-Jun-15 01:59N 53°21' E 008°30'0 0.0
2018-Jun-15 01:29N 53°21' E 008°30'0 0.0
2018-Jun-15 00:59N 53°21' E 008°30'0 0.0
2018-Jun-15 00:29N 53°21' E 008°30'0 0.0
2018-Jun-14 23:56N 53°21' E 008°30'0 0.0
2018-Jun-14 23:29N 53°21' E 008°30'0 0.0
2018-Jun-14 22:59N 53°21' E 008°30'0 0.0
2018-Jun-14 22:26N 53°21' E 008°30'0 0.0
2018-Jun-14 21:59N 53°21' E 008°30'0 0.0
2018-Jun-14 21:29N 53°21' E 008°30'0 0.0
2018-Jun-14 20:59N 53°21' E 008°30'0 0.0
2018-Jun-14 20:26N 53°21' E 008°30'0 0.0
2018-Jun-14 19:56N 53°21' E 008°30'0 0.0
2018-Jun-14 19:29N 53°21' E 008°30'0 0.0
2018-Jun-14 18:38N 53°21' E 008°30'0 0.0
2018-Jun-14 18:29N 53°21' E 008°30'0 0.0
2018-Jun-14 17:32N 53°21' E 008°30'0 0.1
2018-Jun-14 17:26N 53°21' E 008°30'0 0.0
2018-Jun-14 16:56N 53°21' E 008°30'0 0.0
2018-Jun-14 15:11N 53°21' E 008°30'0 0.0
2018-Jun-14 11:11N 53°21' E 008°30'0 0.0
2018-Jun-14 10:59N 53°21' E 008°30'0 0.0
2018-Jun-14 10:29N 53°21' E 008°30'0 0.0
2018-Jun-14 09:56N 53°21' E 008°30'0 0.0
2018-Jun-14 09:26N 53°21' E 008°30'0 0.0
2018-Jun-14 08:56N 53°21' E 008°30'0 0.0
2018-Jun-14 08:08N 53°21' E 008°30'0 0.0
2018-Jun-14 07:59N 53°21' E 008°30'0 0.0
2018-Jun-14 07:26N 53°21' E 008°30'0 0.0
2018-Jun-14 06:59N 53°21' E 008°30'0 0.0
2018-Jun-14 06:29N 53°21' E 008°30'0 0.0
2018-Jun-14 05:59N 53°21' E 008°30'0 0.0
2018-Jun-14 05:29N 53°21' E 008°30'0 0.0
2018-Jun-14 04:56N 53°21' E 008°30'0 0.0
2018-Jun-14 04:29N 53°21' E 008°30'0 0.0
2018-Jun-14 03:59N 53°21' E 008°30'0 0.0
2018-Jun-14 03:29N 53°21' E 008°30'0 0.0
2018-Jun-14 02:59N 53°21' E 008°30'0 0.0
2018-Jun-14 02:29N 53°21' E 008°30'0 0.0
2018-Jun-14 01:59N 53°21' E 008°30'0 0.0
2018-Jun-14 01:29N 53°21' E 008°30'0 0.0
2018-Jun-14 00:59N 53°21' E 008°30'0 0.0
2018-Jun-14 00:26N 53°21' E 008°30'0 0.0
2018-Jun-13 23:59N 53°21' E 008°30'0 0.0
2018-Jun-13 23:29N 53°21' E 008°30'0 0.0
2018-Jun-13 22:59N 53°21' E 008°30'0 0.0
2018-Jun-13 22:26N 53°21' E 008°30'0 0.0
2018-Jun-13 21:59N 53°21' E 008°30'0 0.0
2018-Jun-13 21:29N 53°21' E 008°30'0 0.0
2018-Jun-13 20:59N 53°21' E 008°30'0 0.0
2018-Jun-13 20:29N 53°21' E 008°30'0 0.0
2018-Jun-13 19:59N 53°21' E 008°30'0 0.0
2018-Jun-13 19:29N 53°21' E 008°30'0 0.0
2018-Jun-13 18:59N 53°21' E 008°30'0 0.0
2018-Jun-13 18:29N 53°21' E 008°30'0 0.0
2018-Jun-13 18:00N 53°21' E 008°30'2 3.9
2018-Jun-13 17:30N 53°23' E 008°30'4 8.4
2018-Jun-13 17:00N 53°28' E 008°29'4 7.3
2018-Jun-13 16:30N 53°31' E 008°32'3 6.0
2018-Jun-13 16:00N 53°34' E 008°32'4 7.8
2018-Jun-13 15:30N 53°37' E 008°29'4 8.4
2018-Jun-13 15:00N 53°40' E 008°23'4 7.5
2018-Jun-13 14:30N 53°42' E 008°19'6 8.4
2018-Jun-13 13:44N 53°46' E 008°10'2 7.4
2018-Jun-13 13:26N 53°48' E 008°08'3 7.8
2018-Jun-13 13:01N 53°50' E 008°04'6 8.7
2018-Jun-13 12:19N 53°52' E 007°54'5010.8
2018-Jun-13 07:42N 53°46' E 006°30'411.6
2018-Jun-13 07:23N 53°45' E 006°24'411.4
2018-Jun-13 07:00N 53°44' E 006°17'3010.8
2018-Jun-13 04:16N 53°34' E 005°30'310.9
2018-Jun-13 03:58N 53°33' E 005°24'510.7
2018-Jun-13 03:30N 53°31' E 005°17'510.6
2018-Jun-13 03:00N 53°30' E 005°08'510.2
2018-Jun-13 02:30N 53°28' E 005°00'5 9.9
2018-Jun-13 02:00N 53°26' E 004°53'57 8.1
2018-Jun-12 18:59N 52°38' E 004°02'5 8.5
2018-Jun-12 18:24N 52°34' E 003°58'3 8.6
2018-Jun-12 18:00N 52°31' E 003°55'5 8.8
2018-Jun-12 17:29N 52°26' E 003°53'4 9.1
2018-Jun-12 16:59N 52°22' E 003°52'4 9.3
2018-Jun-12 16:30N 52°17' E 003°52'5 9.8
2018-Jun-12 16:00N 52°13' E 003°54'510.0
2018-Jun-12 15:30N 52°08' E 003°55'510.5
2018-Jun-12 15:00N 52°03' E 003°53'4 8.1
2018-Jun-12 14:30N 52°01' E 003°60'510.0
2018-Jun-12 14:00N 51°59' E 004°07'5 9.1
2018-Jun-12 13:30N 51°56' E 004°13'4 7.6
2018-Jun-12 13:00N 51°54' E 004°18'4 7.7
2018-Jun-12 12:30N 51°51' E 004°22'5 9.1
2018-Jun-12 12:00N 51°50' E 004°29'5 9.1
2018-Jun-12 11:30N 51°48' E 004°36'3 5.2
2018-Jun-12 11:00N 51°49' E 004°40'2 3.9
2018-Jun-12 10:30N 51°51' E 004°40'2 3.2
2018-Jun-12 10:00N 51°52' E 004°38'3 5.6
2018-Jun-12 09:30N 51°54' E 004°34'0 0.2
2018-Jun-12 09:00N 51°54' E 004°34'0 0.0
2018-Jun-12 08:30N 51°54' E 004°34'0 0.0
2018-Jun-12 08:00N 51°54' E 004°34'0 0.0
2018-Jun-12 07:30N 51°54' E 004°34'0 0.0
2018-Jun-12 07:00N 51°54' E 004°34'0 0.0
2018-Jun-12 06:30N 51°54' E 004°34'0 0.0
2018-Jun-12 06:00N 51°54' E 004°34'0 0.0
2018-Jun-12 05:30N 51°54' E 004°34'0 0.0
2018-Jun-12 05:00N 51°54' E 004°34'0 0.0
2018-Jun-12 04:30N 51°54' E 004°34'0 0.0
2018-Jun-12 04:00N 51°54' E 004°34'0 0.0
2018-Jun-12 03:30N 51°54' E 004°34'0 0.0
2018-Jun-12 03:00N 51°54' E 004°34'0 0.0
2018-Jun-12 02:30N 51°54' E 004°34'0 0.0
2018-Jun-12 02:00N 51°54' E 004°34'0 0.0
2018-Jun-12 01:30N 51°54' E 004°34'0 0.0
2018-Jun-12 01:00N 51°54' E 004°34'0 0.0
2018-Jun-12 00:30N 51°54' E 004°34'0 0.0
2018-Jun-12 00:00N 51°54' E 004°34'0 0.0
2018-Jun-11 23:30N 51°54' E 004°34'0 0.0
2018-Jun-11 23:00N 51°54' E 004°34'0 0.0
2018-Jun-11 22:30N 51°54' E 004°34'0 0.0
2018-Jun-11 22:00N 51°54' E 004°34'0 0.0
2018-Jun-11 21:30N 51°54' E 004°34'0 0.0
2018-Jun-11 21:00N 51°54' E 004°34'0 0.0
2018-Jun-11 20:30N 51°54' E 004°34'0 0.0
2018-Jun-11 20:00N 51°54' E 004°34'0 0.0
2018-Jun-11 19:30N 51°54' E 004°34'0 0.0
2018-Jun-11 19:00N 51°54' E 004°34'0 0.0
2018-Jun-11 18:30N 51°54' E 004°34'0 0.0
2018-Jun-11 18:00N 51°54' E 004°34'0 0.0
2018-Jun-11 17:30N 51°54' E 004°34'0 0.0
2018-Jun-11 17:00N 51°54' E 004°34'0 0.0
2018-Jun-11 16:30N 51°54' E 004°34'0 0.0
2018-Jun-11 16:00N 51°54' E 004°34'0 0.0
2018-Jun-11 15:30N 51°54' E 004°34'0 0.0
2018-Jun-11 15:00N 51°54' E 004°34'0 0.0
2018-Jun-11 14:30N 51°54' E 004°34'0 0.0
2018-Jun-11 14:00N 51°54' E 004°34'0 0.0
2018-Jun-11 13:30N 51°54' E 004°34'0 0.0
2018-Jun-11 13:00N 51°54' E 004°34'0 0.0
2018-Jun-11 12:30N 51°54' E 004°34'0 0.0
2018-Jun-11 12:00N 51°54' E 004°34'0 0.0
2018-Jun-11 11:30N 51°54' E 004°34'0 0.0
2018-Jun-11 11:00N 51°54' E 004°34'0 0.0
2018-Jun-11 10:30N 51°54' E 004°34'0 0.0
2018-Jun-11 10:00N 51°54' E 004°34'0 0.0
2018-Jun-11 09:30N 51°54' E 004°34'0 0.0
2018-Jun-11 09:00N 51°54' E 004°34'0 0.0
2018-Jun-11 08:30N 51°54' E 004°34'0 0.0
2018-Jun-11 08:00N 51°54' E 004°34'0 0.0
2018-Jun-11 07:30N 51°54' E 004°34'0 0.0
2018-Jun-11 07:00N 51°54' E 004°34'0 0.0
2018-Jun-11 06:30N 51°54' E 004°34'0 0.0
2018-Jun-11 06:00N 51°54' E 004°34'0 0.0
2018-Jun-11 05:30N 51°54' E 004°34'0 0.0
2018-Jun-11 05:00N 51°54' E 004°34'0 0.0
2018-Jun-11 04:30N 51°54' E 004°34'0 0.0
2018-Jun-11 04:00N 51°54' E 004°34'0 0.0
2018-Jun-11 03:30N 51°54' E 004°34'0 0.0
2018-Jun-11 03:00N 51°54' E 004°34'0 0.0
2018-Jun-11 02:30N 51°54' E 004°34'0 0.0
2018-Jun-11 02:00N 51°54' E 004°34'0 0.0
2018-Jun-11 01:30N 51°54' E 004°34'0 0.0
2018-Jun-11 01:00N 51°54' E 004°34'0 0.0
2018-Jun-11 00:30N 51°54' E 004°34'0 0.0
2018-Jun-11 00:00N 51°54' E 004°34'0 0.0
2018-Jun-10 23:30N 51°54' E 004°34'0 0.0
2018-Jun-10 23:00N 51°54' E 004°34'0 0.0
2018-Jun-10 22:30N 51°54' E 004°34'0 0.0
2018-Jun-10 22:00N 51°54' E 004°34'0 0.0
2018-Jun-10 21:30N 51°54' E 004°34'0 0.0
2018-Jun-10 21:00N 51°54' E 004°34'0 0.0
2018-Jun-10 20:30N 51°54' E 004°34'0 0.0
2018-Jun-10 20:00N 51°54' E 004°34'0 0.0
2018-Jun-10 19:30N 51°54' E 004°34'0 0.0
2018-Jun-10 19:00N 51°54' E 004°34'0 0.0
2018-Jun-10 18:30N 51°54' E 004°34'0 0.0
2018-Jun-10 18:00N 51°54' E 004°34'0 0.0
2018-Jun-10 17:30N 51°54' E 004°34'0 0.0
2018-Jun-10 17:00N 51°54' E 004°34'0 0.0
2018-Jun-10 16:30N 51°54' E 004°34'0 0.0
2018-Jun-10 16:00N 51°54' E 004°34'0 0.0
2018-Jun-10 15:30N 51°54' E 004°34'0 0.0
2018-Jun-10 15:00N 51°54' E 004°34'0 0.0
2018-Jun-10 14:30N 51°54' E 004°34'0 0.0
2018-Jun-10 13:30N 51°54' E 004°34'0 0.0
2018-Jun-10 13:00N 51°54' E 004°34'0 0.0
2018-Jun-10 12:30N 51°54' E 004°34'0 0.0
2018-Jun-10 12:00N 51°54' E 004°34'0 0.0
2018-Jun-10 11:30N 51°54' E 004°34'0 0.0
2018-Jun-10 11:00N 51°54' E 004°34'0 0.0
2018-Jun-10 10:30N 51°54' E 004°34'0 0.0
2018-Jun-10 10:00N 51°54' E 004°34'0 0.0
2018-Jun-10 09:30N 51°54' E 004°34'0 0.0
2018-Jun-10 09:00N 51°54' E 004°34'0 0.0
2018-Jun-10 08:30N 51°54' E 004°34'0 0.0
2018-Jun-10 08:00N 51°54' E 004°34'0 0.0
2018-Jun-10 07:30N 51°54' E 004°34'0 0.0
2018-Jun-10 07:00N 51°54' E 004°34'0 0.0
2018-Jun-10 06:30N 51°54' E 004°34'0 0.0
2018-Jun-10 06:00N 51°54' E 004°34'0 0.0
2018-Jun-10 05:30N 51°54' E 004°34'0 0.0
2018-Jun-10 05:00N 51°54' E 004°34'0 0.0
2018-Jun-10 04:30N 51°54' E 004°34'0 0.0
2018-Jun-10 04:00N 51°54' E 004°34'0 0.0
2018-Jun-10 03:30N 51°54' E 004°34'0 0.0
2018-Jun-10 03:00N 51°54' E 004°34'0 0.0
2018-Jun-10 02:30N 51°54' E 004°34'0 0.0
2018-Jun-10 02:00N 51°54' E 004°34'0 0.0
2018-Jun-10 01:30N 51°54' E 004°34'0 0.0
2018-Jun-10 01:00N 51°54' E 004°34'0 0.0
2018-Jun-10 00:30N 51°54' E 004°34'0 0.0
2018-Jun-10 00:00N 51°54' E 004°34'0 0.0
2018-Jun-09 23:30N 51°54' E 004°34'0 0.0
2018-Jun-09 23:00N 51°54' E 004°34'0 0.0
2018-Jun-09 22:30N 51°54' E 004°34'0 0.0
2018-Jun-09 22:00N 51°54' E 004°34'0 0.0
2018-Jun-09 21:30N 51°54' E 004°34'0 0.0
2018-Jun-09 21:00N 51°54' E 004°34'0 0.0
2018-Jun-09 20:30N 51°54' E 004°34'0 0.0
2018-Jun-09 20:00N 51°54' E 004°34'0 0.0
2018-Jun-09 19:30N 51°54' E 004°34'0 0.0
2018-Jun-09 19:00N 51°54' E 004°34'0 0.0
2018-Jun-09 18:30N 51°54' E 004°34'0 0.0
2018-Jun-09 18:00N 51°54' E 004°34'0 0.0
2018-Jun-09 17:30N 51°54' E 004°34'0 0.0
2018-Jun-09 17:00N 51°54' E 004°34'0 0.0
2018-Jun-09 16:30N 51°54' E 004°34'0 0.0
2018-Jun-09 16:00N 51°54' E 004°34'0 0.0
2018-Jun-09 15:00N 51°54' E 004°34'0 0.0
2018-Jun-09 14:30N 51°54' E 004°34'0 0.0
2018-Jun-09 14:00N 51°54' E 004°34'0 0.0
2018-Jun-09 13:30N 51°54' E 004°34'0 0.0
2018-Jun-09 13:00N 51°54' E 004°34'0 0.0
2018-Jun-09 12:30N 51°54' E 004°34'  
Track history (hours):
 
Tides and Currents Weather Stations Pressure Air Temp Water Temp Dewpoint Dewpoint Depression Visibility Wind Speed Wind Dir Waves Ship Positions

Sea Hunter

Last reported at 2018-Jun-19 12:00 UTC. Time now 2018-Jun-19 12:25 UTC.
Position N 51°28' E 000°21'.

Length 87 m; draft 4.9 m.

Type: Cargo ship. MMSI: 314270000.

Date/timePositionNaut miles runAvg speedWind from/ knotsBaromVisibWave heightAir tempDewpointWater temp
2018-Jun-19 12:00N 51°28' E 000°21'0 0.0
2018-Jun-19 11:30N 51°28' E 000°21'0 0.0
2018-Jun-19 11:00N 51°28' E 000°21'0 0.0
2018-Jun-19 10:30N 51°28' E 000°21'0 0.0
2018-Jun-19 10:00N 51°28' E 000°21'0 0.0
2018-Jun-19 09:30N 51°28' E 000°21'0 0.0
2018-Jun-19 09:00N 51°28' E 000°21'0 0.0
2018-Jun-19 08:30N 51°28' E 000°21'0 0.0
2018-Jun-19 08:00N 51°28' E 000°21'0 0.0
2018-Jun-19 07:30N 51°28' E 000°21'0 0.0
2018-Jun-19 07:00N 51°28' E 000°21'0 0.0
2018-Jun-19 06:30N 51°28' E 000°21'0 0.0
2018-Jun-19 06:00N 51°28' E 000°21'0 0.0
2018-Jun-19 05:30N 51°28' E 000°21'0 0.0
2018-Jun-19 05:00N 51°28' E 000°21'0 0.0
2018-Jun-19 04:30N 51°28' E 000°21'0 0.0
2018-Jun-19 04:00N 51°28' E 000°21'0 0.0
2018-Jun-19 03:30N 51°28' E 000°21'0 0.0
2018-Jun-19 03:00N 51°28' E 000°21'0 0.0
2018-Jun-19 02:30N 51°28' E 000°21'0 0.0
2018-Jun-19 02:00N 51°28' E 000°21'0 0.0
2018-Jun-19 01:30N 51°28' E 000°21'0 0.0
2018-Jun-19 01:00N 51°28' E 000°21'0 0.0
2018-Jun-19 00:30N 51°28' E 000°21'0 0.0
2018-Jun-19 00:00N 51°28' E 000°21'0 0.0
2018-Jun-18 23:30N 51°28' E 000°21'0 0.0
2018-Jun-18 23:00N 51°28' E 000°21'0 0.0
2018-Jun-18 22:30N 51°28' E 000°21'0 0.0
2018-Jun-18 22:00N 51°28' E 000°21'0 0.0
2018-Jun-18 21:30N 51°28' E 000°21'0 0.0
2018-Jun-18 21:00N 51°28' E 000°21'0 0.0
2018-Jun-18 20:30N 51°28' E 000°21'0 0.0
2018-Jun-18 20:00N 51°28' E 000°21'0 0.0
2018-Jun-18 19:30N 51°28' E 000°21'0 0.0
2018-Jun-18 19:00N 51°28' E 000°21'0 0.0
2018-Jun-18 18:30N 51°28' E 000°21'0 0.0
2018-Jun-18 18:00N 51°28' E 000°21'0 0.0
2018-Jun-18 17:31N 51°28' E 000°21'0 0.0
2018-Jun-18 17:00N 51°28' E 000°21'0 0.0
2018-Jun-18 16:30N 51°28' E 000°21'0 0.0
2018-Jun-18 16:00N 51°28' E 000°21'0 0.7
2018-Jun-18 15:30N 51°27' E 000°21'0 0.8
2018-Jun-18 15:00N 51°27' E 000°20'2 3.3
2018-Jun-18 14:30N 51°27' E 000°23'5 9.5
2018-Jun-18 14:01N 51°30' E 000°29'611.5
2018-Jun-18 13:30N 51°30' E 000°38'611.6
2018-Jun-18 13:00N 51°30' E 000°47'611.1
2018-Jun-18 12:30N 51°30' E 000°56'1 2.7
2018-Jun-18 11:58N 51°30' E 000°58'0 0.1
2018-Jun-18 11:28N 51°30' E 000°58'0 0.2
2018-Jun-18 10:58N 51°30' E 000°58'0 0.1
2018-Jun-18 10:28N 51°30' E 000°59'0 0.0
2018-Jun-18 09:58N 51°30' E 000°59'0 0.0
2018-Jun-18 09:28N 51°30' E 000°59'0 0.0
2018-Jun-18 08:58N 51°30' E 000°58'0 0.0
2018-Jun-18 08:28N 51°30' E 000°58'0 0.0
2018-Jun-18 07:58N 51°30' E 000°58'0 0.0
2018-Jun-18 07:28N 51°30' E 000°58'0 0.0
2018-Jun-18 06:58N 51°30' E 000°58'1 2.4
2018-Jun-18 06:31N 51°31' E 000°60'3 5.6
2018-Jun-18 06:01N 51°33' E 001°03'3 6.4
2018-Jun-18 05:31N 51°34' E 001°08'3 6.8
2018-Jun-18 05:01N 51°36' E 001°12'4 7.3
2018-Jun-18 04:30N 51°39' E 001°16'4 7.1
2018-Jun-18 04:01N 51°42' E 001°20'4 7.1
2018-Jun-18 03:31N 51°44' E 001°24'4 7.3
2018-Jun-18 03:01N 51°47' E 001°28'4 7.5
2018-Jun-18 02:30N 51°49' E 001°33'4 8.4
2018-Jun-18 02:00N 51°50' E 001°40'4 8.4
2018-Jun-18 01:30N 51°51' E 001°46'4 8.0
2018-Jun-18 01:01N 51°50' E 001°53'4 8.8
2018-Jun-18 00:30N 51°51' E 001°59'4 8.7
2018-Jun-18 00:01N 51°53' E 002°05'238 8.4
2018-Jun-16 19:49N 53°55' E 007°44'910.0
2018-Jun-16 18:53N 53°52' E 007°58'411.5
2018-Jun-16 18:30N 53°50' E 008°05'612.3
2018-Jun-16 18:00N 53°45' E 008°12'712.8
2018-Jun-16 17:29N 53°41' E 008°21'612.8
2018-Jun-16 16:59N 53°37' E 008°29'510.3
2018-Jun-16 16:31N 53°33' E 008°34'510.4
2018-Jun-16 15:59N 53°28' E 008°30'510.6
2018-Jun-16 15:30N 53°23' E 008°30'1 2.3
2018-Jun-16 14:53N 53°21' E 008°30'0 0.0
2018-Jun-16 11:59N 53°21' E 008°30'0 0.0
2018-Jun-16 11:20N 53°21' E 008°30'0 0.0
2018-Jun-16 10:59N 53°21' E 008°30'0 0.0
2018-Jun-16 10:26N 53°21' E 008°30'0 0.0
2018-Jun-16 09:59N 53°21' E 008°30'0 0.0
2018-Jun-16 09:29N 53°21' E 008°30'0 0.0
2018-Jun-16 08:59N 53°21' E 008°30'0 0.0
2018-Jun-16 08:11N 53°21' E 008°30'0 0.0
2018-Jun-16 07:59N 53°21' E 008°30'0 0.0
2018-Jun-16 07:29N 53°21' E 008°30'0 0.0
2018-Jun-16 06:53N 53°21' E 008°30'0 0.0
2018-Jun-16 06:17N 53°21' E 008°30'0 0.0
2018-Jun-16 05:53N 53°21' E 008°30'0 0.0
2018-Jun-16 05:26N 53°21' E 008°30'0 0.0
2018-Jun-16 04:59N 53°21' E 008°30'0 0.0
2018-Jun-16 04:29N 53°21' E 008°30'0 0.0
2018-Jun-16 03:56N 53°21' E 008°30'0 0.0
2018-Jun-16 03:26N 53°21' E 008°30'0 0.0
2018-Jun-16 02:59N 53°21' E 008°30'0 0.0
2018-Jun-16 02:29N 53°21' E 008°30'0 0.0
2018-Jun-16 01:59N 53°21' E 008°30'0 0.0
2018-Jun-16 01:26N 53°21' E 008°30'0 0.0
2018-Jun-16 00:56N 53°21' E 008°30'0 0.0
2018-Jun-16 00:11N 53°21' E 008°30'0 0.0
2018-Jun-15 23:50N 53°21' E 008°30'0 0.0
2018-Jun-15 23:29N 53°21' E 008°30'0 0.0
2018-Jun-15 22:59N 53°21' E 008°30'0 0.0
2018-Jun-15 22:29N 53°21' E 008°30'0 0.0
2018-Jun-15 21:59N 53°21' E 008°30'0 0.0
2018-Jun-15 21:29N 53°21' E 008°30'0 0.0
2018-Jun-15 20:56N 53°21' E 008°30'0 0.0
2018-Jun-15 20:29N 53°21' E 008°30'0 0.0
2018-Jun-15 19:59N 53°21' E 008°30'0 0.0
2018-Jun-15 19:29N 53°21' E 008°30'0 0.0
2018-Jun-15 18:59N 53°21' E 008°30'0 0.0
2018-Jun-15 18:26N 53°21' E 008°30'0 0.0
2018-Jun-15 17:59N 53°21' E 008°30'0 0.0
2018-Jun-15 17:29N 53°21' E 008°30'0 0.0
2018-Jun-15 16:59N 53°21' E 008°30'0 0.0
2018-Jun-15 13:05N 53°21' E 008°30'0 0.0
2018-Jun-15 12:59N 53°21' E 008°30'0 0.0
2018-Jun-15 12:26N 53°21' E 008°30'0 0.0
2018-Jun-15 11:59N 53°21' E 008°30'0 0.0
2018-Jun-15 11:20N 53°21' E 008°30'0 0.0
2018-Jun-15 10:53N 53°21' E 008°30'0 0.0
2018-Jun-15 10:26N 53°21' E 008°30'0 0.0
2018-Jun-15 09:32N 53°21' E 008°30'0 0.0
2018-Jun-15 09:20N 53°21' E 008°30'0 0.0
2018-Jun-15 08:59N 53°21' E 008°30'0 0.0
2018-Jun-15 08:29N 53°21' E 008°30'0 0.0
2018-Jun-15 07:59N 53°21' E 008°30'0 0.0
2018-Jun-15 07:29N 53°21' E 008°30'0 0.0
2018-Jun-15 06:56N 53°21' E 008°30'0 0.0
2018-Jun-15 06:29N 53°21' E 008°30'0 0.0
2018-Jun-15 05:59N 53°21' E 008°30'0 0.0
2018-Jun-15 05:29N 53°21' E 008°30'0 0.0
2018-Jun-15 04:59N 53°21' E 008°30'0 0.0
2018-Jun-15 04:29N 53°21' E 008°30'0 0.0
2018-Jun-15 03:59N 53°21' E 008°30'0 0.0
2018-Jun-15 03:26N 53°21' E 008°30'0 0.0
2018-Jun-15 02:56N 53°21' E 008°30'0 0.0
2018-Jun-15 02:29N 53°21' E 008°30'0 0.0
2018-Jun-15 01:59N 53°21' E 008°30'0 0.0
2018-Jun-15 01:29N 53°21' E 008°30'0 0.0
2018-Jun-15 00:59N 53°21' E 008°30'0 0.0
2018-Jun-15 00:29N 53°21' E 008°30'0 0.0
2018-Jun-14 23:56N 53°21' E 008°30'0 0.0
2018-Jun-14 23:29N 53°21' E 008°30'0 0.0
2018-Jun-14 22:59N 53°21' E 008°30'0 0.0
2018-Jun-14 22:26N 53°21' E 008°30'0 0.0
2018-Jun-14 21:59N 53°21' E 008°30'0 0.0
2018-Jun-14 21:29N 53°21' E 008°30'0 0.0
2018-Jun-14 20:59N 53°21' E 008°30'0 0.0
2018-Jun-14 20:26N 53°21' E 008°30'0 0.0
2018-Jun-14 19:56N 53°21' E 008°30'0 0.0
2018-Jun-14 19:29N 53°21' E 008°30'0 0.0
2018-Jun-14 18:38N 53°21' E 008°30'0 0.0
2018-Jun-14 18:29N 53°21' E 008°30'0 0.0
2018-Jun-14 17:32N 53°21' E 008°30'0 0.1
2018-Jun-14 17:26N 53°21' E 008°30'0 0.0
2018-Jun-14 16:56N 53°21' E 008°30'0 0.0
2018-Jun-14 15:11N 53°21' E 008°30'0 0.0
2018-Jun-14 11:11N 53°21' E 008°30'0 0.0
2018-Jun-14 10:59N 53°21' E 008°30'0 0.0
2018-Jun-14 10:29N 53°21' E 008°30'0 0.0
2018-Jun-14 09:56N 53°21' E 008°30'0 0.0
2018-Jun-14 09:26N 53°21' E 008°30'0 0.0
2018-Jun-14 08:56N 53°21' E 008°30'0 0.0
2018-Jun-14 08:08N 53°21' E 008°30'0 0.0
2018-Jun-14 07:59N 53°21' E 008°30'0 0.0
2018-Jun-14 07:26N 53°21' E 008°30'0 0.0
2018-Jun-14 06:59N 53°21' E 008°30'0 0.0
2018-Jun-14 06:29N 53°21' E 008°30'0 0.0
2018-Jun-14 05:59N 53°21' E 008°30'0 0.0
2018-Jun-14 05:29N 53°21' E 008°30'0 0.0
2018-Jun-14 04:56N 53°21' E 008°30'0 0.0
2018-Jun-14 04:29N 53°21' E 008°30'0 0.0
2018-Jun-14 03:59N 53°21' E 008°30'0 0.0
2018-Jun-14 03:29N 53°21' E 008°30'0 0.0
2018-Jun-14 02:59N 53°21' E 008°30'0 0.0
2018-Jun-14 02:29N 53°21' E 008°30'0 0.0
2018-Jun-14 01:59N 53°21' E 008°30'0 0.0
2018-Jun-14 01:29N 53°21' E 008°30'0 0.0
2018-Jun-14 00:59N 53°21' E 008°30'0 0.0
2018-Jun-14 00:26N 53°21' E 008°30'0 0.0
2018-Jun-13 23:59N 53°21' E 008°30'0 0.0
2018-Jun-13 23:29N 53°21' E 008°30'0 0.0
2018-Jun-13 22:59N 53°21' E 008°30'0 0.0
2018-Jun-13 22:26N 53°21' E 008°30'0 0.0
2018-Jun-13 21:59N 53°21' E 008°30'0 0.0
2018-Jun-13 21:29N 53°21' E 008°30'0 0.0
2018-Jun-13 20:59N 53°21' E 008°30'0 0.0
2018-Jun-13 20:29N 53°21' E 008°30'0 0.0
2018-Jun-13 19:59N 53°21' E 008°30'0 0.0
2018-Jun-13 19:29N 53°21' E 008°30'0 0.0
2018-Jun-13 18:59N 53°21' E 008°30'0 0.0
2018-Jun-13 18:29N 53°21' E 008°30'0 0.0
2018-Jun-13 18:00N 53°21' E 008°30'2 3.9
2018-Jun-13 17:30N 53°23' E 008°30'4 8.4
2018-Jun-13 17:00N 53°28' E 008°29'4 7.3
2018-Jun-13 16:30N 53°31' E 008°32'3 6.0
2018-Jun-13 16:00N 53°34' E 008°32'4 7.8
2018-Jun-13 15:30N 53°37' E 008°29'4 8.4
2018-Jun-13 15:00N 53°40' E 008°23'4 7.5
2018-Jun-13 14:30N 53°42' E 008°19'6 8.4
2018-Jun-13 13:44N 53°46' E 008°10'2 7.4
2018-Jun-13 13:26N 53°48' E 008°08'3 7.8
2018-Jun-13 13:01N 53°50' E 008°04'6 8.7
2018-Jun-13 12:19N 53°52' E 007°54'5010.8
2018-Jun-13 07:42N 53°46' E 006°30'411.6
2018-Jun-13 07:23N 53°45' E 006°24'411.4
2018-Jun-13 07:00N 53°44' E 006°17'3010.8
2018-Jun-13 04:16N 53°34' E 005°30'310.9
2018-Jun-13 03:58N 53°33' E 005°24'510.7
2018-Jun-13 03:30N 53°31' E 005°17'510.6
2018-Jun-13 03:00N 53°30' E 005°08'510.2
2018-Jun-13 02:30N 53°28' E 005°00'5 9.9
2018-Jun-13 02:00N 53°26' E 004°53'57 8.1
2018-Jun-12 18:59N 52°38' E 004°02'5 8.5
2018-Jun-12 18:24N 52°34' E 003°58'3 8.6
2018-Jun-12 18:00N 52°31' E 003°55'5 8.8
2018-Jun-12 17:29N 52°26' E 003°53'4 9.1
2018-Jun-12 16:59N 52°22' E 003°52'4 9.3
2018-Jun-12 16:30N 52°17' E 003°52'5 9.8
2018-Jun-12 16:00N 52°13' E 003°54'510.0
2018-Jun-12 15:30N 52°08' E 003°55'510.5
2018-Jun-12 15:00N 52°03' E 003°53'4 8.1
2018-Jun-12 14:30N 52°01' E 003°60'510.0
2018-Jun-12 14:00N 51°59' E 004°07'5 9.1
2018-Jun-12 13:30N 51°56' E 004°13'4 7.6
2018-Jun-12 13:00N 51°54' E 004°18'4 7.7
2018-Jun-12 12:30N 51°51' E 004°22'5 9.1
2018-Jun-12 12:00N 51°50' E 004°29'5 9.1
2018-Jun-12 11:30N 51°48' E 004°36'3 5.2
2018-Jun-12 11:00N 51°49' E 004°40'2 3.9
2018-Jun-12 10:30N 51°51' E 004°40'2 3.2
2018-Jun-12 10:00N 51°52' E 004°38'3 5.6
2018-Jun-12 09:30N 51°54' E 004°34'0 0.2
2018-Jun-12 09:00N 51°54' E 004°34'0 0.0
2018-Jun-12 08:30N 51°54' E 004°34'0 0.0
2018-Jun-12 08:00N 51°54' E 004°34'0 0.0
2018-Jun-12 07:30N 51°54' E 004°34'0 0.0
2018-Jun-12 07:00N 51°54' E 004°34'0 0.0
2018-Jun-12 06:30N 51°54' E 004°34'0 0.0
2018-Jun-12 06:00N 51°54' E 004°34'0 0.0
2018-Jun-12 05:30N 51°54' E 004°34'0 0.0
2018-Jun-12 05:00N 51°54' E 004°34'0 0.0
2018-Jun-12 04:30N 51°54' E 004°34'0 0.0
2018-Jun-12 04:00N 51°54' E 004°34'0 0.0
2018-Jun-12 03:30N 51°54' E 004°34'0 0.0
2018-Jun-12 03:00N 51°54' E 004°34'0 0.0
2018-Jun-12 02:30N 51°54' E 004°34'0 0.0
2018-Jun-12 02:00N 51°54' E 004°34'0 0.0
2018-Jun-12 01:30N 51°54' E 004°34'0 0.0
2018-Jun-12 01:00N 51°54' E 004°34'0 0.0
2018-Jun-12 00:30N 51°54' E 004°34'0 0.0
2018-Jun-12 00:00N 51°54' E 004°34'0 0.0
2018-Jun-11 23:30N 51°54' E 004°34'0 0.0
2018-Jun-11 23:00N 51°54' E 004°34'0 0.0
2018-Jun-11 22:30N 51°54' E 004°34'0 0.0
2018-Jun-11 22:00N 51°54' E 004°34'0 0.0
2018-Jun-11 21:30N 51°54' E 004°34'0 0.0
2018-Jun-11 21:00N 51°54' E 004°34'0 0.0
2018-Jun-11 20:30N 51°54' E 004°34'0 0.0
2018-Jun-11 20:00N 51°54' E 004°34'0 0.0
2018-Jun-11 19:30N 51°54' E 004°34'0 0.0
2018-Jun-11 19:00N 51°54' E 004°34'0 0.0
2018-Jun-11 18:30N 51°54' E 004°34'0 0.0
2018-Jun-11 18:00N 51°54' E 004°34'0 0.0
2018-Jun-11 17:30N 51°54' E 004°34'0 0.0
2018-Jun-11 17:00N 51°54' E 004°34'0 0.0
2018-Jun-11 16:30N 51°54' E 004°34'0 0.0
2018-Jun-11 16:00N 51°54' E 004°34'0 0.0
2018-Jun-11 15:30N 51°54' E 004°34'0 0.0
2018-Jun-11 15:00N 51°54' E 004°34'0 0.0
2018-Jun-11 14:30N 51°54' E 004°34'0 0.0
2018-Jun-11 14:00N 51°54' E 004°34'0 0.0
2018-Jun-11 13:30N 51°54' E 004°34'0 0.0
2018-Jun-11 13:00N 51°54' E 004°34'0 0.0
2018-Jun-11 12:30N 51°54' E 004°34'0 0.0
2018-Jun-11 12:00N 51°54' E 004°34'0 0.0
2018-Jun-11 11:30N 51°54' E 004°34'0 0.0
2018-Jun-11 11:00N 51°54' E 004°34'0 0.0
2018-Jun-11 10:30N 51°54' E 004°34'0 0.0
2018-Jun-11 10:00N 51°54' E 004°34'0 0.0
2018-Jun-11 09:30N 51°54' E 004°34'0 0.0
2018-Jun-11 09:00N 51°54' E 004°34'0 0.0
2018-Jun-11 08:30N 51°54' E 004°34'0 0.0
2018-Jun-11 08:00N 51°54' E 004°34'0 0.0
2018-Jun-11 07:30N 51°54' E 004°34'0 0.0
2018-Jun-11 07:00N 51°54' E 004°34'0 0.0
2018-Jun-11 06:30N 51°54' E 004°34'0 0.0
2018-Jun-11 06:00N 51°54' E 004°34'0 0.0
2018-Jun-11 05:30N 51°54' E 004°34'0 0.0
2018-Jun-11 05:00N 51°54' E 004°34'0 0.0
2018-Jun-11 04:30N 51°54' E 004°34'0 0.0
2018-Jun-11 04:00N 51°54' E 004°34'0 0.0
2018-Jun-11 03:30N 51°54' E 004°34'0 0.0
2018-Jun-11 03:00N 51°54' E 004°34'0 0.0
2018-Jun-11 02:30N 51°54' E 004°34'0 0.0
2018-Jun-11 02:00N 51°54' E 004°34'0 0.0
2018-Jun-11 01:30N 51°54' E 004°34'0 0.0
2018-Jun-11 01:00N 51°54' E 004°34'0 0.0
2018-Jun-11 00:30N 51°54' E 004°34'0 0.0
2018-Jun-11 00:00N 51°54' E 004°34'0 0.0
2018-Jun-10 23:30N 51°54' E 004°34'0 0.0
2018-Jun-10 23:00N 51°54' E 004°34'0 0.0
2018-Jun-10 22:30N 51°54' E 004°34'0 0.0
2018-Jun-10 22:00N 51°54' E 004°34'0 0.0
2018-Jun-10 21:30N 51°54' E 004°34'0 0.0
2018-Jun-10 21:00N 51°54' E 004°34'0 0.0
2018-Jun-10 20:30N 51°54' E 004°34'0 0.0
2018-Jun-10 20:00N 51°54' E 004°34'0 0.0
2018-Jun-10 19:30N 51°54' E 004°34'0 0.0
2018-Jun-10 19:00N 51°54' E 004°34'0 0.0
2018-Jun-10 18:30N 51°54' E 004°34'0 0.0
2018-Jun-10 18:00N 51°54' E 004°34'0 0.0
2018-Jun-10 17:30N 51°54' E 004°34'0 0.0
2018-Jun-10 17:00N 51°54' E 004°34'0 0.0
2018-Jun-10 16:30N 51°54' E 004°34'0 0.0
2018-Jun-10 16:00N 51°54' E 004°34'0 0.0
2018-Jun-10 15:30N 51°54' E 004°34'0 0.0
2018-Jun-10 15:00N 51°54' E 004°34'0 0.0
2018-Jun-10 14:30N 51°54' E 004°34'0 0.0
2018-Jun-10 13:30N 51°54' E 004°34'0 0.0
2018-Jun-10 13:00N 51°54' E 004°34'0 0.0
2018-Jun-10 12:30N 51°54' E 004°34'0 0.0
2018-Jun-10 12:00N 51°54' E 004°34'0 0.0
2018-Jun-10 11:30N 51°54' E 004°34'0 0.0
2018-Jun-10 11:00N 51°54' E 004°34'0 0.0
2018-Jun-10 10:30N 51°54' E 004°34'0 0.0
2018-Jun-10 10:00N 51°54' E 004°34'0 0.0
2018-Jun-10 09:30N 51°54' E 004°34'0 0.0
2018-Jun-10 09:00N 51°54' E 004°34'0 0.0
2018-Jun-10 08:30N 51°54' E 004°34'0 0.0
2018-Jun-10 08:00N 51°54' E 004°34'0 0.0
2018-Jun-10 07:30N 51°54' E 004°34'0 0.0
2018-Jun-10 07:00N 51°54' E 004°34'0 0.0
2018-Jun-10 06:30N 51°54' E 004°34'0 0.0
2018-Jun-10 06:00N 51°54' E 004°34'0 0.0
2018-Jun-10 05:30N 51°54' E 004°34'0 0.0
2018-Jun-10 05:00N 51°54' E 004°34'0 0.0
2018-Jun-10 04:30N 51°54' E 004°34'0 0.0
2018-Jun-10 04:00N 51°54' E 004°34'0 0.0
2018-Jun-10 03:30N 51°54' E 004°34'0 0.0
2018-Jun-10 03:00N 51°54' E 004°34'0 0.0
2018-Jun-10 02:30N 51°54' E 004°34'0 0.0
2018-Jun-10 02:00N 51°54' E 004°34'0 0.0
2018-Jun-10 01:30N 51°54' E 004°34'0 0.0
2018-Jun-10 01:00N 51°54' E 004°34'0 0.0
2018-Jun-10 00:30N 51°54' E 004°34'0 0.0
2018-Jun-10 00:00N 51°54' E 004°34'0 0.0
2018-Jun-09 23:30N 51°54' E 004°34'0 0.0
2018-Jun-09 23:00N 51°54' E 004°34'0 0.0
2018-Jun-09 22:30N 51°54' E 004°34'0 0.0
2018-Jun-09 22:00N 51°54' E 004°34'0 0.0
2018-Jun-09 21:30N 51°54' E 004°34'0 0.0
2018-Jun-09 21:00N 51°54' E 004°34'0 0.0
2018-Jun-09 20:30N 51°54' E 004°34'0 0.0
2018-Jun-09 20:00N 51°54' E 004°34'0 0.0
2018-Jun-09 19:30N 51°54' E 004°34'0 0.0
2018-Jun-09 19:00N 51°54' E 004°34'0 0.0
2018-Jun-09 18:30N 51°54' E 004°34'0 0.0
2018-Jun-09 18:00N 51°54' E 004°34'0 0.0
2018-Jun-09 17:30N 51°54' E 004°34'0 0.0
2018-Jun-09 17:00N 51°54' E 004°34'0 0.0
2018-Jun-09 16:30N 51°54' E 004°34'0 0.0
2018-Jun-09 16:00N 51°54' E 004°34'0 0.0
2018-Jun-09 15:00N 51°54' E 004°34'0 0.0
2018-Jun-09 14:30N 51°54' E 004°34'0 0.0
2018-Jun-09 14:00N 51°54' E 004°34'0 0.0
2018-Jun-09 13:30N 51°54' E 004°34'0 0.0
2018-Jun-09 13:00N 51°54' E 004°34'0 0.0
2018-Jun-09 12:30N 51°54' E 004°34'  

Dump ship's entire track history